sensor_id;sensor_type;location;lat;lon;timestamp;temperature;humidity
27619;DHT22;15039;50.830;4.730;2023-08-06T00:00:38;16.10;99.90
27619;DHT22;15039;50.830;4.730;2023-08-06T00:03:03;16.10;99.90
27619;DHT22;15039;50.830;4.730;2023-08-06T00:05:29;16.20;99.90
27619;DHT22;15039;50.830;4.730;2023-08-06T00:07:54;16.20;99.90
27619;DHT22;15039;50.830;4.730;2023-08-06T00:10:20;16.20;99.90
27619;DHT22;15039;50.830;4.730;2023-08-06T00:12:45;16.10;99.90
27619;DHT22;15039;50.830;4.730;2023-08-06T00:15:11;16.10;99.90
27619;DHT22;15039;50.830;4.730;2023-08-06T00:17:37;16.00;99.90
27619;DHT22;15039;50.830;4.730;2023-08-06T00:20:03;16.10;99.90
27619;DHT22;15039;50.830;4.730;2023-08-06T00:22:32;16.10;99.90
27619;DHT22;15039;50.830;4.730;2023-08-06T00:24:58;16.20;99.90
27619;DHT22;15039;50.830;4.730;2023-08-06T00:27:24;16.20;99.90
27619;DHT22;15039;50.830;4.730;2023-08-06T00:29:49;16.20;99.90
27619;DHT22;15039;50.830;4.730;2023-08-06T00:32:15;16.20;99.90
27619;DHT22;15039;50.830;4.730;2023-08-06T00:34:40;16.20;99.90
27619;DHT22;15039;50.830;4.730;2023-08-06T00:37:06;16.20;99.90
27619;DHT22;15039;50.830;4.730;2023-08-06T00:39:31;16.20;99.90
27619;DHT22;15039;50.830;4.730;2023-08-06T00:41:57;16.20;99.90
27619;DHT22;15039;50.830;4.730;2023-08-06T00:44:23;16.20;99.90
27619;DHT22;15039;50.830;4.730;2023-08-06T00:46:49;16.20;99.90
27619;DHT22;15039;50.830;4.730;2023-08-06T00:49:14;16.10;99.90
27619;DHT22;15039;50.830;4.730;2023-08-06T00:51:40;16.20;99.90
27619;DHT22;15039;50.830;4.730;2023-08-06T00:54:06;16.20;99.90
27619;DHT22;15039;50.830;4.730;2023-08-06T00:56:32;16.20;99.90
27619;DHT22;15039;50.830;4.730;2023-08-06T00:59:00;16.20;99.90
27619;DHT22;15039;50.830;4.730;2023-08-06T01:01:26;16.20;99.90
27619;DHT22;15039;50.830;4.730;2023-08-06T01:03:52;16.20;99.90
27619;DHT22;15039;50.830;4.730;2023-08-06T01:06:18;16.30;99.90
27619;DHT22;15039;50.830;4.730;2023-08-06T01:11:33;16.40;99.90
27619;DHT22;15039;50.830;4.730;2023-08-06T01:14:02;16.30;99.90
27619;DHT22;15039;50.830;4.730;2023-08-06T01:16:31;16.30;99.90
27619;DHT22;15039;50.830;4.730;2023-08-06T01:18:58;16.40;99.90
27619;DHT22;15039;50.830;4.730;2023-08-06T01:21:24;16.30;99.90
27619;DHT22;15039;50.830;4.730;2023-08-06T01:23:49;16.40;99.90
27619;DHT22;15039;50.830;4.730;2023-08-06T01:26:32;16.40;99.90
27619;DHT22;15039;50.830;4.730;2023-08-06T01:29:10;16.40;99.90
27619;DHT22;15039;50.830;4.730;2023-08-06T01:31:37;16.40;99.90
27619;DHT22;15039;50.830;4.730;2023-08-06T01:34:03;16.30;99.90
27619;DHT22;15039;50.830;4.730;2023-08-06T01:36:30;16.30;99.90
27619;DHT22;15039;50.830;4.730;2023-08-06T01:38:55;16.40;99.90
27619;DHT22;15039;50.830;4.730;2023-08-06T01:41:22;16.40;99.90
27619;DHT22;15039;50.830;4.730;2023-08-06T01:43:48;16.50;99.90
27619;DHT22;15039;50.830;4.730;2023-08-06T01:46:13;16.40;99.90
27619;DHT22;15039;50.830;4.730;2023-08-06T01:48:39;16.50;99.90
27619;DHT22;15039;50.830;4.730;2023-08-06T01:51:04;16.50;99.90
27619;DHT22;15039;50.830;4.730;2023-08-06T01:53:31;16.60;99.90
27619;DHT22;15039;50.830;4.730;2023-08-06T01:55:57;16.50;99.90
27619;DHT22;15039;50.830;4.730;2023-08-06T01:58:22;16.40;99.90
27619;DHT22;15039;50.830;4.730;2023-08-06T02:00:48;16.40;99.90
27619;DHT22;15039;50.830;4.730;2023-08-06T02:03:13;16.40;99.90
27619;DHT22;15039;50.830;4.730;2023-08-06T02:05:39;16.50;99.90
27619;DHT22;15039;50.830;4.730;2023-08-06T02:08:05;16.50;99.90
27619;DHT22;15039;50.830;4.730;2023-08-06T02:10:30;16.50;99.90
27619;DHT22;15039;50.830;4.730;2023-08-06T02:12:56;16.40;99.90
27619;DHT22;15039;50.830;4.730;2023-08-06T02:15:21;16.40;99.90
27619;DHT22;15039;50.830;4.730;2023-08-06T02:17:47;16.40;99.90
27619;DHT22;15039;50.830;4.730;2023-08-06T02:20:12;16.40;99.90
27619;DHT22;15039;50.830;4.730;2023-08-06T02:22:38;16.40;99.90
27619;DHT22;15039;50.830;4.730;2023-08-06T02:25:03;16.40;99.90
27619;DHT22;15039;50.830;4.730;2023-08-06T02:27:29;16.40;99.90
27619;DHT22;15039;50.830;4.730;2023-08-06T02:29:55;16.40;99.90
27619;DHT22;15039;50.830;4.730;2023-08-06T02:32:20;16.40;99.90
27619;DHT22;15039;50.830;4.730;2023-08-06T02:34:46;16.50;99.90
27619;DHT22;15039;50.830;4.730;2023-08-06T02:37:11;16.50;99.90
27619;DHT22;15039;50.830;4.730;2023-08-06T02:39:37;16.40;99.90
27619;DHT22;15039;50.830;4.730;2023-08-06T02:42:05;16.30;99.90
27619;DHT22;15039;50.830;4.730;2023-08-06T02:44:30;16.20;99.90
27619;DHT22;15039;50.830;4.730;2023-08-06T02:46:56;16.30;99.90
27619;DHT22;15039;50.830;4.730;2023-08-06T02:49:22;16.30;99.90
27619;DHT22;15039;50.830;4.730;2023-08-06T02:51:47;16.40;99.90
27619;DHT22;15039;50.830;4.730;2023-08-06T02:54:13;16.40;99.90
27619;DHT22;15039;50.830;4.730;2023-08-06T02:56:38;16.40;99.90
27619;DHT22;15039;50.830;4.730;2023-08-06T02:59:04;16.30;99.90
27619;DHT22;15039;50.830;4.730;2023-08-06T03:01:29;16.20;99.90
27619;DHT22;15039;50.830;4.730;2023-08-06T03:03:55;16.20;99.90
27619;DHT22;15039;50.830;4.730;2023-08-06T03:06:20;16.30;99.90
27619;DHT22;15039;50.830;4.730;2023-08-06T03:08:46;16.20;99.90
27619;DHT22;15039;50.830;4.730;2023-08-06T03:11:11;16.20;99.90
27619;DHT22;15039;50.830;4.730;2023-08-06T03:13:37;16.30;99.90
27619;DHT22;15039;50.830;4.730;2023-08-06T03:16:02;16.30;99.90
27619;DHT22;15039;50.830;4.730;2023-08-06T03:18:28;16.30;99.90
27619;DHT22;15039;50.830;4.730;2023-08-06T03:20:53;16.20;99.90
27619;DHT22;15039;50.830;4.730;2023-08-06T03:23:19;16.20;99.90
27619;DHT22;15039;50.830;4.730;2023-08-06T03:25:45;16.30;99.90
27619;DHT22;15039;50.830;4.730;2023-08-06T03:28:11;16.30;99.90
27619;DHT22;15039;50.830;4.730;2023-08-06T03:30:37;16.20;99.90
27619;DHT22;15039;50.830;4.730;2023-08-06T03:33:02;16.20;99.90
27619;DHT22;15039;50.830;4.730;2023-08-06T03:35:28;16.20;99.90
27619;DHT22;15039;50.830;4.730;2023-08-06T03:37:53;16.20;99.90
27619;DHT22;15039;50.830;4.730;2023-08-06T03:40:19;16.20;99.90
27619;DHT22;15039;50.830;4.730;2023-08-06T03:42:44;16.30;99.90
27619;DHT22;15039;50.830;4.730;2023-08-06T03:45:10;16.30;99.90
27619;DHT22;15039;50.830;4.730;2023-08-06T03:47:35;16.20;99.90
27619;DHT22;15039;50.830;4.730;2023-08-06T03:50:01;16.20;99.90
27619;DHT22;15039;50.830;4.730;2023-08-06T03:52:27;16.00;99.90
27619;DHT22;15039;50.830;4.730;2023-08-06T03:54:54;15.90;99.90
27619;DHT22;15039;50.830;4.730;2023-08-06T03:57:19;15.90;99.90
27619;DHT22;15039;50.830;4.730;2023-08-06T03:59:45;16.00;99.90
27619;DHT22;15039;50.830;4.730;2023-08-06T04:02:10;16.00;99.90
27619;DHT22;15039;50.830;4.730;2023-08-06T04:04:36;15.90;99.90
27619;DHT22;15039;50.830;4.730;2023-08-06T04:07:02;15.90;99.90
27619;DHT22;15039;50.830;4.730;2023-08-06T04:09:30;15.90;99.90
27619;DHT22;15039;50.830;4.730;2023-08-06T04:11:56;16.00;99.90
27619;DHT22;15039;50.830;4.730;2023-08-06T04:14:23;16.00;99.90
27619;DHT22;15039;50.830;4.730;2023-08-06T04:16:49;16.00;99.90
27619;DHT22;15039;50.830;4.730;2023-08-06T04:19:14;15.90;99.90
27619;DHT22;15039;50.830;4.730;2023-08-06T04:21:40;15.90;99.90
27619;DHT22;15039;50.830;4.730;2023-08-06T04:24:06;15.90;99.90
27619;DHT22;15039;50.830;4.730;2023-08-06T04:26:31;15.80;99.90
27619;DHT22;15039;50.830;4.730;2023-08-06T04:28:57;15.80;99.90
27619;DHT22;15039;50.830;4.730;2023-08-06T04:31:22;16.00;99.90
27619;DHT22;15039;50.830;4.730;2023-08-06T04:33:48;16.00;99.90
27619;DHT22;15039;50.830;4.730;2023-08-06T04:36:14;15.90;99.90
27619;DHT22;15039;50.830;4.730;2023-08-06T04:38:39;15.90;99.90
27619;DHT22;15039;50.830;4.730;2023-08-06T04:41:09;16.00;99.90
27619;DHT22;15039;50.830;4.730;2023-08-06T04:43:35;15.90;99.90
27619;DHT22;15039;50.830;4.730;2023-08-06T04:46:00;15.80;99.90
27619;DHT22;15039;50.830;4.730;2023-08-06T04:48:26;15.70;99.90
27619;DHT22;15039;50.830;4.730;2023-08-06T04:50:51;15.60;99.90
27619;DHT22;15039;50.830;4.730;2023-08-06T04:53:17;15.60;99.90
27619;DHT22;15039;50.830;4.730;2023-08-06T04:55:42;15.40;99.90
27619;DHT22;15039;50.830;4.730;2023-08-06T04:58:08;15.20;99.90
27619;DHT22;15039;50.830;4.730;2023-08-06T05:00:34;15.10;99.90
27619;DHT22;15039;50.830;4.730;2023-08-06T05:03:00;15.00;99.90
27619;DHT22;15039;50.830;4.730;2023-08-06T05:05:26;14.90;99.90
27619;DHT22;15039;50.830;4.730;2023-08-06T05:07:54;14.90;99.90
27619;DHT22;15039;50.830;4.730;2023-08-06T05:10:19;15.00;99.90
27619;DHT22;15039;50.830;4.730;2023-08-06T05:12:45;14.90;99.90
27619;DHT22;15039;50.830;4.730;2023-08-06T05:15:10;14.80;99.90
27619;DHT22;15039;50.830;4.730;2023-08-06T05:17:36;14.60;99.90
27619;DHT22;15039;50.830;4.730;2023-08-06T05:20:01;14.50;99.90
27619;DHT22;15039;50.830;4.730;2023-08-06T05:22:27;14.50;99.90
27619;DHT22;15039;50.830;4.730;2023-08-06T05:24:52;14.30;99.90
27619;DHT22;15039;50.830;4.730;2023-08-06T05:27:18;14.20;99.90
27619;DHT22;15039;50.830;4.730;2023-08-06T05:29:47;14.20;99.90
27619;DHT22;15039;50.830;4.730;2023-08-06T05:32:13;14.20;99.90
27619;DHT22;15039;50.830;4.730;2023-08-06T05:34:38;14.30;99.90
27619;DHT22;15039;50.830;4.730;2023-08-06T05:37:04;14.20;99.90
27619;DHT22;15039;50.830;4.730;2023-08-06T05:39:29;14.20;99.90
27619;DHT22;15039;50.830;4.730;2023-08-06T05:41:55;14.30;99.90
27619;DHT22;15039;50.830;4.730;2023-08-06T05:44:21;14.30;99.90
27619;DHT22;15039;50.830;4.730;2023-08-06T05:46:47;14.20;99.90
27619;DHT22;15039;50.830;4.730;2023-08-06T05:49:12;14.10;99.90
27619;DHT22;15039;50.830;4.730;2023-08-06T05:51:39;14.10;99.90
27619;DHT22;15039;50.830;4.730;2023-08-06T05:54:04;14.10;99.90
27619;DHT22;15039;50.830;4.730;2023-08-06T05:56:30;14.10;99.90
27619;DHT22;15039;50.830;4.730;2023-08-06T05:58:55;14.10;99.90
27619;DHT22;15039;50.830;4.730;2023-08-06T06:01:21;14.00;99.90
27619;DHT22;15039;50.830;4.730;2023-08-06T06:03:46;14.10;99.90
27619;DHT22;15039;50.830;4.730;2023-08-06T06:06:12;14.10;99.90
27619;DHT22;15039;50.830;4.730;2023-08-06T06:08:38;14.20;99.90
27619;DHT22;15039;50.830;4.730;2023-08-06T06:11:03;14.20;99.90
27619;DHT22;15039;50.830;4.730;2023-08-06T06:13:29;14.20;99.90
27619;DHT22;15039;50.830;4.730;2023-08-06T06:15:54;14.20;99.90
27619;DHT22;15039;50.830;4.730;2023-08-06T06:18:21;14.20;99.90
27619;DHT22;15039;50.830;4.730;2023-08-06T06:20:46;14.20;99.90
27619;DHT22;15039;50.830;4.730;2023-08-06T06:23:12;14.30;99.90
27619;DHT22;15039;50.830;4.730;2023-08-06T06:25:41;14.20;99.90
27619;DHT22;15039;50.830;4.730;2023-08-06T06:28:07;14.30;99.90
27619;DHT22;15039;50.830;4.730;2023-08-06T06:30:32;14.30;99.90
27619;DHT22;15039;50.830;4.730;2023-08-06T06:32:58;14.30;99.90
27619;DHT22;15039;50.830;4.730;2023-08-06T06:35:23;14.30;99.90
27619;DHT22;15039;50.830;4.730;2023-08-06T06:37:49;14.30;99.90
27619;DHT22;15039;50.830;4.730;2023-08-06T06:40:14;14.30;99.90
27619;DHT22;15039;50.830;4.730;2023-08-06T06:42:40;14.30;99.90
27619;DHT22;15039;50.830;4.730;2023-08-06T06:45:06;14.40;99.90
27619;DHT22;15039;50.830;4.730;2023-08-06T06:47:31;14.30;99.90
27619;DHT22;15039;50.830;4.730;2023-08-06T06:49:57;14.30;99.90
27619;DHT22;15039;50.830;4.730;2023-08-06T06:52:22;14.40;99.90
27619;DHT22;15039;50.830;4.730;2023-08-06T06:54:48;14.40;99.90
27619;DHT22;15039;50.830;4.730;2023-08-06T06:57:13;14.50;99.90
27619;DHT22;15039;50.830;4.730;2023-08-06T06:59:39;14.50;99.90
27619;DHT22;15039;50.830;4.730;2023-08-06T07:02:05;14.60;99.90
27619;DHT22;15039;50.830;4.730;2023-08-06T07:04:30;14.60;99.90
27619;DHT22;15039;50.830;4.730;2023-08-06T07:06:56;14.50;99.90
27619;DHT22;15039;50.830;4.730;2023-08-06T07:09:21;14.50;99.90
27619;DHT22;15039;50.830;4.730;2023-08-06T07:11:47;14.70;99.90
27619;DHT22;15039;50.830;4.730;2023-08-06T07:14:13;14.80;99.90
27619;DHT22;15039;50.830;4.730;2023-08-06T07:16:39;14.70;99.90
27619;DHT22;15039;50.830;4.730;2023-08-06T07:19:05;14.70;99.90
27619;DHT22;15039;50.830;4.730;2023-08-06T07:21:31;14.70;99.90
27619;DHT22;15039;50.830;4.730;2023-08-06T07:23:57;14.80;99.90
27619;DHT22;15039;50.830;4.730;2023-08-06T07:26:24;14.80;99.90
27619;DHT22;15039;50.830;4.730;2023-08-06T07:28:50;14.70;99.90
27619;DHT22;15039;50.830;4.730;2023-08-06T07:31:15;14.80;99.90
27619;DHT22;15039;50.830;4.730;2023-08-06T07:33:41;14.70;99.90
27619;DHT22;15039;50.830;4.730;2023-08-06T07:36:07;14.70;99.90
27619;DHT22;15039;50.830;4.730;2023-08-06T07:38:33;14.80;99.90
27619;DHT22;15039;50.830;4.730;2023-08-06T07:41:00;14.80;99.90
27619;DHT22;15039;50.830;4.730;2023-08-06T07:43:26;14.90;99.90
27619;DHT22;15039;50.830;4.730;2023-08-06T07:45:51;14.90;99.90
27619;DHT22;15039;50.830;4.730;2023-08-06T07:48:17;14.90;99.90
27619;DHT22;15039;50.830;4.730;2023-08-06T07:50:43;14.90;99.90
27619;DHT22;15039;50.830;4.730;2023-08-06T07:53:15;14.90;99.90
27619;DHT22;15039;50.830;4.730;2023-08-06T07:55:40;14.90;99.90
27619;DHT22;15039;50.830;4.730;2023-08-06T07:58:06;14.90;99.90
27619;DHT22;15039;50.830;4.730;2023-08-06T08:00:31;14.80;99.90
27619;DHT22;15039;50.830;4.730;2023-08-06T08:02:57;14.70;99.90
27619;DHT22;15039;50.830;4.730;2023-08-06T08:05:22;14.60;99.90
27619;DHT22;15039;50.830;4.730;2023-08-06T08:07:48;14.50;99.90
27619;DHT22;15039;50.830;4.730;2023-08-06T08:10:13;14.50;99.90
27619;DHT22;15039;50.830;4.730;2023-08-06T08:12:39;14.50;99.90
27619;DHT22;15039;50.830;4.730;2023-08-06T08:15:05;14.60;99.90
27619;DHT22;15039;50.830;4.730;2023-08-06T08:17:31;14.70;99.90
27619;DHT22;15039;50.830;4.730;2023-08-06T08:19:56;14.80;99.90
27619;DHT22;15039;50.830;4.730;2023-08-06T08:22:22;14.80;99.90
27619;DHT22;15039;50.830;4.730;2023-08-06T08:24:47;14.80;99.90
27619;DHT22;15039;50.830;4.730;2023-08-06T08:27:13;14.80;99.90
27619;DHT22;15039;50.830;4.730;2023-08-06T08:29:38;14.90;99.90
27619;DHT22;15039;50.830;4.730;2023-08-06T08:32:04;14.90;99.90
27619;DHT22;15039;50.830;4.730;2023-08-06T08:34:29;15.10;99.90
27619;DHT22;15039;50.830;4.730;2023-08-06T08:36:55;15.20;99.90
27619;DHT22;15039;50.830;4.730;2023-08-06T08:39:20;15.40;99.90
27619;DHT22;15039;50.830;4.730;2023-08-06T08:41:46;15.40;99.90
27619;DHT22;15039;50.830;4.730;2023-08-06T08:44:11;15.60;99.90
27619;DHT22;15039;50.830;4.730;2023-08-06T08:46:39;15.60;99.90
27619;DHT22;15039;50.830;4.730;2023-08-06T08:49:05;15.60;99.90
27619;DHT22;15039;50.830;4.730;2023-08-06T08:51:32;15.50;99.90
27619;DHT22;15039;50.830;4.730;2023-08-06T08:53:58;15.50;99.90
27619;DHT22;15039;50.830;4.730;2023-08-06T08:56:23;15.50;99.90
27619;DHT22;15039;50.830;4.730;2023-08-06T08:58:49;15.50;99.90
27619;DHT22;15039;50.830;4.730;2023-08-06T09:01:15;15.50;99.90
27619;DHT22;15039;50.830;4.730;2023-08-06T09:03:41;15.40;99.90
27619;DHT22;15039;50.830;4.730;2023-08-06T09:06:07;15.30;99.90
27619;DHT22;15039;50.830;4.730;2023-08-06T09:08:38;15.20;99.90
27619;DHT22;15039;50.830;4.730;2023-08-06T09:11:04;15.30;99.90
27619;DHT22;15039;50.830;4.730;2023-08-06T09:13:30;15.50;99.90
27619;DHT22;15039;50.830;4.730;2023-08-06T09:15:55;15.70;99.90
27619;DHT22;15039;50.830;4.730;2023-08-06T09:18:25;15.80;99.90
27619;DHT22;15039;50.830;4.730;2023-08-06T09:20:51;15.80;99.90
27619;DHT22;15039;50.830;4.730;2023-08-06T09:23:16;15.90;99.90
27619;DHT22;15039;50.830;4.730;2023-08-06T09:25:42;15.80;99.90
27619;DHT22;15039;50.830;4.730;2023-08-06T09:28:07;15.80;99.90
27619;DHT22;15039;50.830;4.730;2023-08-06T09:30:34;15.90;99.90
27619;DHT22;15039;50.830;4.730;2023-08-06T09:32:59;15.80;99.90
27619;DHT22;15039;50.830;4.730;2023-08-06T09:35:28;15.70;99.90
27619;DHT22;15039;50.830;4.730;2023-08-06T09:37:53;15.50;99.90
27619;DHT22;15039;50.830;4.730;2023-08-06T09:40:29;15.60;99.90
27619;DHT22;15039;50.830;4.730;2023-08-06T09:42:55;15.60;99.90
27619;DHT22;15039;50.830;4.730;2023-08-06T09:45:21;15.60;99.90
27619;DHT22;15039;50.830;4.730;2023-08-06T09:47:50;15.40;99.90
27619;DHT22;15039;50.830;4.730;2023-08-06T09:50:19;15.40;99.90
27619;DHT22;15039;50.830;4.730;2023-08-06T09:52:46;15.40;99.90
27619;DHT22;15039;50.830;4.730;2023-08-06T09:55:12;15.30;99.90
27619;DHT22;15039;50.830;4.730;2023-08-06T09:57:39;15.00;99.90
27619;DHT22;15039;50.830;4.730;2023-08-06T10:00:04;14.90;99.90
27619;DHT22;15039;50.830;4.730;2023-08-06T10:02:33;14.80;99.90
27619;DHT22;15039;50.830;4.730;2023-08-06T10:04:59;14.70;99.90
27619;DHT22;15039;50.830;4.730;2023-08-06T10:07:24;14.70;99.90
27619;DHT22;15039;50.830;4.730;2023-08-06T10:09:50;14.80;99.90
27619;DHT22;15039;50.830;4.730;2023-08-06T10:12:15;14.80;99.90
27619;DHT22;15039;50.830;4.730;2023-08-06T10:14:43;14.80;99.90
27619;DHT22;15039;50.830;4.730;2023-08-06T10:17:09;14.70;99.90
27619;DHT22;15039;50.830;4.730;2023-08-06T10:19:35;14.80;99.90
27619;DHT22;15039;50.830;4.730;2023-08-06T10:27:19;14.70;99.90
27619;DHT22;15039;50.830;4.730;2023-08-06T10:29:44;14.70;99.90
27619;DHT22;15039;50.830;4.730;2023-08-06T10:32:10;14.60;99.90
27619;DHT22;15039;50.830;4.730;2023-08-06T10:37:23;14.70;99.90
27619;DHT22;15039;50.830;4.730;2023-08-06T10:39:50;14.60;99.90
27619;DHT22;15039;50.830;4.730;2023-08-06T10:42:20;14.50;99.90
27619;DHT22;15039;50.830;4.730;2023-08-06T10:47:30;14.70;99.90
27619;DHT22;15039;50.830;4.730;2023-08-06T10:49:57;14.70;99.90
27619;DHT22;15039;50.830;4.730;2023-08-06T10:52:23;14.60;99.90
27619;DHT22;15039;50.830;4.730;2023-08-06T10:54:48;14.50;99.90
27619;DHT22;15039;50.830;4.730;2023-08-06T10:57:14;14.50;99.90
27619;DHT22;15039;50.830;4.730;2023-08-06T10:59:39;14.50;99.90
27619;DHT22;15039;50.830;4.730;2023-08-06T11:02:05;14.60;99.90
27619;DHT22;15039;50.830;4.730;2023-08-06T11:04:30;14.60;99.90
27619;DHT22;15039;50.830;4.730;2023-08-06T11:06:56;14.60;99.90
27619;DHT22;15039;50.830;4.730;2023-08-06T11:09:22;14.70;99.90
27619;DHT22;15039;50.830;4.730;2023-08-06T11:11:47;14.80;99.90
27619;DHT22;15039;50.830;4.730;2023-08-06T11:14:16;14.80;99.90
27619;DHT22;15039;50.830;4.730;2023-08-06T11:16:41;14.80;99.90
27619;DHT22;15039;50.830;4.730;2023-08-06T11:19:07;14.70;99.90
27619;DHT22;15039;50.830;4.730;2023-08-06T11:21:33;14.70;99.90
27619;DHT22;15039;50.830;4.730;2023-08-06T11:23:58;14.60;99.90
27619;DHT22;15039;50.830;4.730;2023-08-06T11:26:25;14.70;99.90
27619;DHT22;15039;50.830;4.730;2023-08-06T11:28:50;14.80;99.90
27619;DHT22;15039;50.830;4.730;2023-08-06T11:31:23;14.90;99.90
27619;DHT22;15039;50.830;4.730;2023-08-06T11:33:52;15.00;99.90
27619;DHT22;15039;50.830;4.730;2023-08-06T11:36:28;15.20;99.90
27619;DHT22;15039;50.830;4.730;2023-08-06T11:38:54;15.30;99.90
27619;DHT22;15039;50.830;4.730;2023-08-06T11:41:20;15.30;99.90
27619;DHT22;15039;50.830;4.730;2023-08-06T11:43:46;15.30;99.90
27619;DHT22;15039;50.830;4.730;2023-08-06T11:46:11;15.40;99.90
27619;DHT22;15039;50.830;4.730;2023-08-06T11:48:56;15.50;99.90
27619;DHT22;15039;50.830;4.730;2023-08-06T11:51:25;15.50;99.90
27619;DHT22;15039;50.830;4.730;2023-08-06T11:53:59;15.70;99.90
27619;DHT22;15039;50.830;4.730;2023-08-06T11:56:25;15.60;99.90
27619;DHT22;15039;50.830;4.730;2023-08-06T11:58:51;15.50;99.90
27619;DHT22;15039;50.830;4.730;2023-08-06T12:01:18;15.30;99.90
27619;DHT22;15039;50.830;4.730;2023-08-06T12:03:43;15.10;99.90
27619;DHT22;15039;50.830;4.730;2023-08-06T12:06:09;14.80;99.90
27619;DHT22;15039;50.830;4.730;2023-08-06T12:08:34;14.70;99.90
27619;DHT22;15039;50.830;4.730;2023-08-06T12:11:00;14.60;99.90
27619;DHT22;15039;50.830;4.730;2023-08-06T12:13:26;14.70;99.90
27619;DHT22;15039;50.830;4.730;2023-08-06T12:15:51;14.70;99.90
27619;DHT22;15039;50.830;4.730;2023-08-06T12:18:19;14.90;99.90
27619;DHT22;15039;50.830;4.730;2023-08-06T12:20:44;15.20;99.90
27619;DHT22;15039;50.830;4.730;2023-08-06T12:23:10;15.60;99.90
27619;DHT22;15039;50.830;4.730;2023-08-06T12:25:35;15.60;99.90
27619;DHT22;15039;50.830;4.730;2023-08-06T12:28:01;15.80;99.90
27619;DHT22;15039;50.830;4.730;2023-08-06T12:30:26;15.80;99.90
27619;DHT22;15039;50.830;4.730;2023-08-06T12:32:52;15.80;99.90
27619;DHT22;15039;50.830;4.730;2023-08-06T12:35:18;15.80;99.90
27619;DHT22;15039;50.830;4.730;2023-08-06T12:37:46;15.80;99.90
27619;DHT22;15039;50.830;4.730;2023-08-06T12:40:11;15.80;99.90
27619;DHT22;15039;50.830;4.730;2023-08-06T12:42:37;15.80;99.90
27619;DHT22;15039;50.830;4.730;2023-08-06T12:45:02;15.90;99.90
27619;DHT22;15039;50.830;4.730;2023-08-06T12:47:28;16.00;99.90
27619;DHT22;15039;50.830;4.730;2023-08-06T12:49:53;15.90;99.90
27619;DHT22;15039;50.830;4.730;2023-08-06T12:52:19;15.90;99.90
27619;DHT22;15039;50.830;4.730;2023-08-06T12:54:45;15.90;99.90
27619;DHT22;15039;50.830;4.730;2023-08-06T12:57:12;16.00;99.90
27619;DHT22;15039;50.830;4.730;2023-08-06T12:59:37;15.90;99.90
27619;DHT22;15039;50.830;4.730;2023-08-06T13:02:03;15.80;99.90
27619;DHT22;15039;50.830;4.730;2023-08-06T13:04:29;15.70;99.90
27619;DHT22;15039;50.830;4.730;2023-08-06T13:06:54;15.60;99.90
27619;DHT22;15039;50.830;4.730;2023-08-06T13:09:20;15.40;99.90
27619;DHT22;15039;50.830;4.730;2023-08-06T13:11:45;15.50;99.90
27619;DHT22;15039;50.830;4.730;2023-08-06T13:14:12;15.50;99.90
27619;DHT22;15039;50.830;4.730;2023-08-06T13:16:38;15.40;99.90
27619;DHT22;15039;50.830;4.730;2023-08-06T13:19:05;15.20;99.90
27619;DHT22;15039;50.830;4.730;2023-08-06T13:21:32;15.10;99.90
27619;DHT22;15039;50.830;4.730;2023-08-06T13:23:57;15.00;99.90
27619;DHT22;15039;50.830;4.730;2023-08-06T13:26:23;14.90;99.90
27619;DHT22;15039;50.830;4.730;2023-08-06T13:28:48;14.90;99.90
27619;DHT22;15039;50.830;4.730;2023-08-06T13:31:14;14.90;99.90
27619;DHT22;15039;50.830;4.730;2023-08-06T13:33:40;14.90;99.90
27619;DHT22;15039;50.830;4.730;2023-08-06T13:36:05;14.80;99.90
27619;DHT22;15039;50.830;4.730;2023-08-06T13:38:31;14.80;99.90
27619;DHT22;15039;50.830;4.730;2023-08-06T13:40:56;14.70;99.90
27619;DHT22;15039;50.830;4.730;2023-08-06T13:43:22;14.70;99.90
27619;DHT22;15039;50.830;4.730;2023-08-06T13:45:47;14.80;99.90
27619;DHT22;15039;50.830;4.730;2023-08-06T13:48:13;14.80;99.90
27619;DHT22;15039;50.830;4.730;2023-08-06T13:50:39;14.70;99.90
27619;DHT22;15039;50.830;4.730;2023-08-06T13:53:05;14.70;99.90
27619;DHT22;15039;50.830;4.730;2023-08-06T13:55:30;14.60;99.90
27619;DHT22;15039;50.830;4.730;2023-08-06T13:57:56;14.60;99.90
27619;DHT22;15039;50.830;4.730;2023-08-06T14:00:21;14.50;99.90
27619;DHT22;15039;50.830;4.730;2023-08-06T14:02:47;14.50;99.90
27619;DHT22;15039;50.830;4.730;2023-08-06T14:05:12;14.40;99.90
27619;DHT22;15039;50.830;4.730;2023-08-06T14:07:38;14.30;99.90
27619;DHT22;15039;50.830;4.730;2023-08-06T14:10:04;14.20;99.90
27619;DHT22;15039;50.830;4.730;2023-08-06T14:12:30;14.20;99.90
27619;DHT22;15039;50.830;4.730;2023-08-06T14:14:56;14.10;99.90
27619;DHT22;15039;50.830;4.730;2023-08-06T14:17:21;14.10;99.90
27619;DHT22;15039;50.830;4.730;2023-08-06T14:19:47;14.10;99.90
27619;DHT22;15039;50.830;4.730;2023-08-06T14:22:12;14.10;99.90
27619;DHT22;15039;50.830;4.730;2023-08-06T14:24:38;14.10;99.90
27619;DHT22;15039;50.830;4.730;2023-08-06T14:27:04;14.10;99.90
27619;DHT22;15039;50.830;4.730;2023-08-06T14:29:31;14.10;99.90
27619;DHT22;15039;50.830;4.730;2023-08-06T14:31:56;14.00;99.90
27619;DHT22;15039;50.830;4.730;2023-08-06T14:34:22;14.00;99.90
27619;DHT22;15039;50.830;4.730;2023-08-06T14:36:47;13.90;99.90
27619;DHT22;15039;50.830;4.730;2023-08-06T14:39:13;14.00;99.90
27619;DHT22;15039;50.830;4.730;2023-08-06T14:41:39;14.10;99.90
27619;DHT22;15039;50.830;4.730;2023-08-06T14:44:04;14.10;99.90
27619;DHT22;15039;50.830;4.730;2023-08-06T14:46:30;14.10;99.90
27619;DHT22;15039;50.830;4.730;2023-08-06T14:48:55;14.10;99.90
27619;DHT22;15039;50.830;4.730;2023-08-06T14:51:21;14.20;99.90
27619;DHT22;15039;50.830;4.730;2023-08-06T14:53:46;14.20;99.90
27619;DHT22;15039;50.830;4.730;2023-08-06T14:56:12;14.20;99.90
27619;DHT22;15039;50.830;4.730;2023-08-06T14:58:38;14.30;99.90
27619;DHT22;15039;50.830;4.730;2023-08-06T15:01:03;14.30;99.90
27619;DHT22;15039;50.830;4.730;2023-08-06T15:03:29;14.30;99.90
27619;DHT22;15039;50.830;4.730;2023-08-06T15:05:56;14.20;99.90
27619;DHT22;15039;50.830;4.730;2023-08-06T15:08:22;14.40;99.90
27619;DHT22;15039;50.830;4.730;2023-08-06T15:10:51;14.30;99.90
27619;DHT22;15039;50.830;4.730;2023-08-06T15:13:20;14.20;99.90
27619;DHT22;15039;50.830;4.730;2023-08-06T15:15:46;14.10;99.90
27619;DHT22;15039;50.830;4.730;2023-08-06T15:18:12;14.30;99.90
27619;DHT22;15039;50.830;4.730;2023-08-06T15:20:38;14.30;99.90
27619;DHT22;15039;50.830;4.730;2023-08-06T15:23:03;14.30;99.90
27619;DHT22;15039;50.830;4.730;2023-08-06T15:25:29;14.40;99.90
27619;DHT22;15039;50.830;4.730;2023-08-06T15:27:54;14.30;99.90
27619;DHT22;15039;50.830;4.730;2023-08-06T15:30:20;14.30;99.90
27619;DHT22;15039;50.830;4.730;2023-08-06T15:32:46;14.30;99.90
27619;DHT22;15039;50.830;4.730;2023-08-06T15:35:12;14.30;99.90